Time;durP1;ratioP1;P1;durP2;ratioP2;P2;SDS_P1;SDS_P2;PMS_P1;PMS_P2;Temp;Humidity;BMP_temperature;BMP_pressure;BME280_temperature;BME280_humidity;BME280_pressure;Samples;Min_cycle;Max_cycle;Signal;HPM_P1;HPM_P2
2022/03/08 00:01:45;;;;;;;0.80;0.80;;;;;;;-2.81;83.08;98649.00;6104106;23;20120;-86
2022/03/08 00:04:12;;;;;;;0.60;0.60;;;;;;;-2.88;82.90;98643.53;6076962;23;20019;-87
2022/03/08 00:06:39;;;;;;;0.70;0.70;;;;;;;-2.72;83.08;98663.81;6098957;23;20022;-87
2022/03/08 00:09:06;;;;;;;0.52;0.52;;;;;;;-2.66;83.08;98665.81;6101030;23;20022;-86
2022/03/08 00:11:34;;;;;;;0.68;0.68;;;;;;;-2.62;82.91;98669.75;6099305;23;20037;-86
2022/03/08 00:14:01;;;;;;;0.65;0.65;;;;;;;-2.60;83.05;98663.47;6097540;23;20026;-86
2022/03/08 00:16:28;;;;;;;0.70;0.70;;;;;;;-2.69;83.08;98649.44;6071147;23;20018;-87
2022/03/08 00:18:55;;;;;;;0.68;0.68;;;;;;;-2.60;83.35;98666.13;6097242;23;20512;-87
2022/03/08 00:21:23;;;;;;;0.68;0.68;;;;;;;-2.59;83.53;98668.56;6071768;23;20458;-86
2022/03/08 00:23:51;;;;;;;0.75;0.75;;;;;;;-2.69;83.69;98666.13;6103541;23;20492;-86
2022/03/08 00:26:18;;;;;;;0.70;0.70;;;;;;;-2.64;83.58;98679.66;6107886;23;20041;-88
2022/03/08 00:28:47;;;;;;;0.70;0.70;;;;;;;-2.67;84.01;98682.63;6116402;23;20026;-87
2022/03/08 00:31:17;;;;;;;0.80;0.80;;;;;;;-2.73;84.19;98683.31;6115934;23;20027;-87
2022/03/08 00:33:44;;;;;;;0.60;0.60;;;;;;;-2.99;83.46;98677.38;6085705;23;20022;-86
2022/03/08 00:36:11;;;;;;;0.68;0.68;;;;;;;-3.14;83.80;98678.06;6121450;23;20058;-85
2022/03/08 00:38:39;;;;;;;0.60;0.60;;;;;;;-3.30;83.41;98684.13;6117331;23;20024;-85
2022/03/08 00:41:06;;;;;;;0.70;0.70;;;;;;;-3.33;83.41;98670.44;6086243;23;20050;-85
2022/03/08 00:43:35;;;;;;;0.43;0.43;;;;;;;-3.50;83.18;98680.97;6096278;23;20374;-85
2022/03/08 00:46:02;;;;;;;0.50;0.50;;;;;;;-3.59;83.29;98689.88;6096964;23;20054;-85
2022/03/08 00:48:31;;;;;;;0.57;0.57;;;;;;;-3.67;83.54;98689.88;6096184;23;20052;-85
2022/03/08 00:50:59;;;;;;;0.60;0.60;;;;;;;-3.59;83.71;98683.78;6094565;23;20026;-86
2022/03/08 00:53:26;;;;;;;0.65;0.65;;;;;;;-3.56;83.35;98694.00;6096165;23;20054;-84
2022/03/08 00:55:53;;;;;;;0.57;0.57;;;;;;;-3.59;83.20;98695.16;6099607;23;20529;-84
2022/03/08 00:58:21;;;;;;;0.60;0.60;;;;;;;-3.55;83.47;98695.63;6074198;23;20026;-84
2022/03/08 01:00:49;;;;;;;0.65;0.65;;;;;;;-3.53;83.47;98698.94;6106434;23;20023;-85
2022/03/08 01:03:16;;;;;;;0.60;0.60;;;;;;;-3.51;83.32;98695.16;6076735;23;20520;-83
2022/03/08 01:05:44;;;;;;;0.52;0.52;;;;;;;-3.61;83.29;98699.75;6096930;23;20113;-84
2022/03/08 01:08:13;;;;;;;0.60;0.60;;;;;;;-3.58;83.04;98701.25;6097264;23;20022;-86
2022/03/08 01:10:41;;;;;;;0.65;0.65;;;;;;;-3.57;83.05;98694.97;6097396;23;20026;-88
2022/03/08 01:13:08;;;;;;;1.00;1.00;;;;;;;-3.67;82.34;98689.00;6119421;23;20026;-85
2022/03/08 01:15:35;;;;;;;0.57;0.57;;;;;;;-3.67;81.87;98710.13;6121721;23;20049;-86
2022/03/08 01:18:03;;;;;;;0.45;0.45;;;;;;;-3.86;81.83;98685.69;6110257;23;20026;-86
2022/03/08 01:20:30;;;;;;;0.70;0.70;;;;;;;-3.85;81.41;98699.69;6096770;23;20038;-86
2022/03/08 01:22:58;;;;;;;0.50;0.50;;;;;;;-3.83;80.95;98716.16;6098436;23;20357;-86
2022/03/08 01:25:25;;;;;;;0.60;0.60;;;;;;;-3.87;80.82;98713.03;6072219;23;20109;-87
2022/03/08 01:27:53;;;;;;;0.60;0.60;;;;;;;-3.91;80.81;98714.34;6071883;23;20052;-86
2022/03/08 01:30:22;;;;;;;0.70;0.70;;;;;;;-3.90;80.61;98715.97;6097662;23;20050;-87
2022/03/08 01:32:50;;;;;;;0.65;0.65;;;;;;;-4.00;80.54;98710.84;6071962;23;20108;-85
2022/03/08 01:35:18;;;;;;;0.60;0.60;;;;;;;-4.02;80.32;98712.81;6096608;23;20086;-85
2022/03/08 01:37:45;;;;;;;0.50;0.50;;;;;;;-4.07;80.32;98715.09;6096208;23;20069;-84
2022/03/08 01:40:15;;;;;;;0.75;0.75;;;;;;;-4.11;80.03;98724.28;6096520;23;20510;-86
2022/03/08 01:42:49;;;;;;;0.57;0.57;;;;;;;-4.24;80.04;98711.56;6071167;23;20049;-86
2022/03/08 01:45:22;;;;;;;0.60;0.60;;;;;;;-4.19;80.42;98721.63;6094723;23;20022;-84
2022/03/08 01:47:50;;;;;;;0.70;0.70;;;;;;;-4.19;80.22;98727.72;6071667;23;20129;-86
2022/03/08 01:50:18;;;;;;;0.60;0.60;;;;;;;-4.23;79.98;98725.53;6096478;23;20022;-85
2022/03/08 01:52:46;;;;;;;0.57;0.57;;;;;;;-4.28;79.56;98730.47;6094342;23;20049;-87
2022/03/08 01:55:14;;;;;;;0.50;0.50;;;;;;;-4.31;79.66;98733.41;6094972;23;20029;-85
2022/03/08 01:57:43;;;;;;;0.50;0.50;;;;;;;-4.31;79.83;98743.94;6095983;23;20050;-87
2022/03/08 02:00:13;;;;;;;0.60;0.60;;;;;;;-4.36;79.90;98739.16;6096434;23;20022;-86
2022/03/08 02:02:41;;;;;;;0.43;0.43;;;;;;;-4.39;79.82;98744.72;6071321;23;20046;-86
2022/03/08 02:05:09;;;;;;;0.52;0.52;;;;;;;-4.41;79.87;98738.78;6096187;23;20108;-86
2022/03/08 02:07:37;;;;;;;0.40;0.40;;;;;;;-4.50;79.87;98735.28;6096278;23;20022;-89
2022/03/08 02:10:05;;;;;;;0.60;0.60;;;;;;;-4.50;80.00;98753.72;6071044;23;20022;-86
2022/03/08 02:12:33;;;;;;;0.70;0.70;;;;;;;-4.50;79.99;98748.47;6070864;23;20037;-86
2022/03/08 02:15:14;;;;;;;0.70;0.70;;;;;;;-4.55;80.23;98748.09;6096941;23;20078;-86
2022/03/08 02:17:41;;;;;;;0.47;0.47;;;;;;;-4.54;79.90;98755.00;6050840;23;20018;-86
2022/03/08 02:20:10;;;;;;;0.60;0.60;;;;;;;-4.65;79.86;98742.09;6104023;23;20024;-85
2022/03/08 02:22:42;;;;;;;0.60;0.60;;;;;;;-4.57;80.23;98761.41;6070573;23;20362;-88
2022/03/08 02:25:10;;;;;;;0.60;0.60;;;;;;;-4.59;79.97;98757.28;6096276;23;20081;-87
2022/03/08 02:27:42;;;;;;;0.57;0.57;;;;;;;-4.55;79.93;98773.63;6097173;23;20109;-86
2022/03/08 02:30:14;;;;;;;0.60;0.60;;;;;;;-4.56;79.77;98783.31;6097910;23;20032;-87
2022/03/08 02:32:42;;;;;;;0.52;0.52;;;;;;;-4.61;79.53;98769.75;6071792;23;20027;-87
2022/03/08 02:35:12;;;;;;;0.70;0.70;;;;;;;-4.66;79.29;98764.13;6095568;23;20030;-83
2022/03/08 02:37:42;;;;;;;0.65;0.65;;;;;;;-4.67;79.35;98776.47;6093466;23;20026;-82
2022/03/08 02:40:13;;;;;;;0.60;0.60;;;;;;;-4.81;79.28;98769.97;6095090;23;20026;-83
2022/03/08 02:42:40;;;;;;;0.50;0.50;;;;;;;-4.85;79.48;98768.59;6095083;23;20065;-85
2022/03/08 02:45:09;;;;;;;0.50;0.50;;;;;;;-4.88;79.54;98776.00;6095261;23;20030;-83
2022/03/08 02:47:36;;;;;;;0.57;0.57;;;;;;;-4.87;79.91;98783.72;6070093;23;20026;-83
2022/03/08 02:50:06;;;;;;;0.50;0.50;;;;;;;-4.95;79.78;98786.28;6094934;23;20394;-82
2022/03/08 02:52:35;;;;;;;0.68;0.68;;;;;;;-4.99;79.99;98792.00;6094521;23;20022;-83
2022/03/08 02:55:03;;;;;;;0.60;0.60;;;;;;;-4.98;80.16;98802.38;6095228;23;20113;-84
2022/03/08 02:57:30;;;;;;;0.60;0.60;;;;;;;-5.00;80.18;98793.81;6094832;23;20074;-83
2022/03/08 02:59:57;;;;;;;0.55;0.55;;;;;;;-4.91;80.17;98803.44;6095113;23;20022;-84
2022/03/08 03:02:24;;;;;;;0.70;0.70;;;;;;;-4.87;79.80;98806.59;6098518;23;20038;-86
2022/03/08 03:04:52;;;;;;;0.50;0.50;;;;;;;-4.88;79.71;98810.22;6096301;23;20022;-86
2022/03/08 03:07:22;;;;;;;0.63;0.63;;;;;;;-4.90;79.56;98812.16;6101488;23;20022;-87
2022/03/08 03:09:50;;;;;;;0.65;0.65;;;;;;;-4.88;79.59;98815.47;6080880;23;20026;-86
2022/03/08 03:12:18;;;;;;;0.55;0.55;;;;;;;-4.90;79.65;98820.88;6083551;23;20516;-85
2022/03/08 03:14:45;;;;;;;0.70;0.70;;;;;;;-4.94;79.38;98813.44;6109760;23;20074;-85
2022/03/08 03:17:12;;;;;;;0.50;0.50;;;;;;;-4.83;79.38;98823.75;6105433;23;20022;-85
2022/03/08 03:19:39;;;;;;;0.57;0.57;;;;;;;-4.81;79.58;98827.88;6098068;23;20109;-84
2022/03/08 03:22:07;;;;;;;0.50;0.50;;;;;;;-4.80;79.25;98836.59;6095265;23;20414;-85
2022/03/08 03:24:34;;;;;;;0.52;0.52;;;;;;;-4.85;79.15;98834.41;6093441;23;20030;-85
2022/03/08 03:27:01;;;;;;;0.50;0.50;;;;;;;-4.82;79.19;98839.38;6093969;23;20026;-84
2022/03/08 03:29:28;;;;;;;0.60;0.60;;;;;;;-4.90;79.27;98834.03;6069259;23;20081;-83
2022/03/08 03:31:56;;;;;;;0.60;0.60;;;;;;;-4.89;78.83;98840.94;6095177;23;20030;-86
2022/03/08 03:34:23;;;;;;;0.50;0.50;;;;;;;-4.89;78.90;98843.59;6095666;23;20451;-84
2022/03/08 03:36:50;;;;;;;0.50;0.50;;;;;;;-4.91;78.56;98844.72;6095925;23;20475;-86
2022/03/08 03:39:17;;;;;;;0.63;0.63;;;;;;;-4.94;78.49;98845.00;6096324;23;20022;-83
2022/03/08 03:41:45;;;;;;;0.50;0.50;;;;;;;-5.01;78.64;98845.63;6094989;23;20018;-84
2022/03/08 03:44:13;;;;;;;0.57;0.57;;;;;;;-5.06;78.51;98853.13;6098812;23;20030;-86
2022/03/08 03:46:41;;;;;;;0.60;0.60;;;;;;;-5.05;78.30;98854.78;6096411;23;20023;-87
2022/03/08 03:49:08;;;;;;;0.70;0.70;;;;;;;-5.13;78.45;98854.69;6097952;23;20645;-87
2022/03/08 03:51:35;;;;;;;0.60;0.60;;;;;;;-5.12;78.57;98858.16;6098813;23;20082;-88
2022/03/08 03:54:03;;;;;;;0.65;0.65;;;;;;;-5.08;78.58;98865.63;6098073;23;20510;-89
2022/03/08 03:56:31;;;;;;;0.70;0.70;;;;;;;-5.08;78.40;98867.41;6048153;23;20022;-86
2022/03/08 03:59:01;;;;;;;0.70;0.70;;;;;;;-5.06;78.58;98871.56;6096839;23;20022;-87
2022/03/08 04:01:29;;;;;;;0.75;0.75;;;;;;;-5.14;78.55;98854.84;6097509;23;20104;-84
2022/03/08 04:03:56;;;;;;;0.60;0.60;;;;;;;-5.11;78.69;98876.44;6098203;23;20477;-86
2022/03/08 04:06:23;;;;;;;0.60;0.60;;;;;;;-5.04;78.57;98874.88;6084822;23;20022;-87
2022/03/08 04:08:50;;;;;;;0.60;0.60;;;;;;;-5.07;78.45;98882.22;6112468;23;20030;-85
2022/03/08 04:11:17;;;;;;;0.60;0.60;;;;;;;-5.08;78.47;98883.22;6107337;23;20028;-82
2022/03/08 04:13:45;;;;;;;0.77;0.77;;;;;;;-5.08;78.58;98883.22;6097710;23;20026;-84
2022/03/08 04:16:12;;;;;;;0.50;0.50;;;;;;;-5.09;78.40;98884.16;6071731;23;20030;-86
2022/03/08 04:18:39;;;;;;;0.70;0.70;;;;;;;-5.10;78.50;98885.16;6097546;23;20365;-86
2022/03/08 04:21:07;;;;;;;0.85;0.85;;;;;;;-5.10;78.58;98875.44;6072654;23;20343;-87
2022/03/08 04:23:35;;;;;;;0.60;0.60;;;;;;;-5.04;78.55;98889.81;6098258;23;20022;-87
2022/03/08 04:26:03;;;;;;;0.50;0.50;;;;;;;-5.08;78.25;98888.47;6072167;23;20033;-86
2022/03/08 04:28:30;;;;;;;0.73;0.73;;;;;;;-5.09;78.33;98885.03;6072602;23;20026;-87
2022/03/08 04:30:58;;;;;;;0.68;0.68;;;;;;;-5.11;78.18;98886.16;6096756;23;20106;-87
2022/03/08 04:33:26;;;;;;;0.55;0.55;;;;;;;-5.13;78.27;98888.91;6096678;23;20110;-87
2022/03/08 04:35:53;;;;;;;0.65;0.65;;;;;;;-5.14;78.35;98902.22;6096349;23;20022;-86
2022/03/08 04:38:20;;;;;;;0.60;0.60;;;;;;;-5.12;78.42;98908.97;6069771;23;20033;-89
2022/03/08 04:40:51;;;;;;;0.63;0.63;;;;;;;-5.10;78.54;98906.22;6098088;23;20045;-89
2022/03/08 04:43:18;;;;;;;0.70;0.70;;;;;;;-5.06;78.24;98905.78;6048819;23;20030;-88
2022/03/08 04:45:46;;;;;;;0.40;0.40;;;;;;;-5.06;78.29;98913.66;6097592;23;20082;-88
2022/03/08 04:48:13;;;;;;;0.70;0.70;;;;;;;-4.99;78.06;98918.34;6095769;23;20030;-88
2022/03/08 04:50:41;;;;;;;0.55;0.55;;;;;;;-4.95;78.05;98910.00;6097998;23;20060;-90
2022/03/08 04:53:09;;;;;;;0.70;0.70;;;;;;;-4.95;77.98;98910.00;6100311;23;20034;-89
2022/03/08 04:55:41;;;;;;;0.60;0.60;;;;;;;-4.88;77.91;98921.59;6102908;23;20029;-90
2022/03/08 04:58:09;;;;;;;0.60;0.60;;;;;;;-4.92;77.75;98920.22;6096455;23;20006;-90
2022/03/08 05:00:39;;;;;;;0.60;0.60;;;;;;;-4.93;77.80;98928.28;6123794;23;20006;-92
2022/03/08 05:03:07;;;;;;;0.60;0.60;;;;;;;-4.96;77.84;98932.03;6064237;23;20026;-93
2022/03/08 05:05:59;;;;;;;0.60;0.60;;;;;;;-4.90;78.00;98944.59;6030186;23;20022;-93
2022/03/08 05:08:28;;;;;;;0.50;0.50;;;;;;;-5.01;77.75;98921.13;6084163;23;20030;-92
2022/03/08 05:10:55;;;;;;;0.60;0.60;;;;;;;-4.88;77.77;98941.84;6104558;23;20022;-90
2022/03/08 05:13:23;;;;;;;0.60;0.60;;;;;;;-4.95;77.61;98935.50;6050702;23;20038;-89
2022/03/08 05:15:56;;;;;;;0.80;0.80;;;;;;;-4.88;77.31;98941.84;6077526;23;20027;-90
2022/03/08 05:18:25;;;;;;;0.93;0.93;;;;;;;-4.77;77.42;98948.69;6112858;23;20015;-91
2022/03/08 05:20:53;;;;;;;0.60;0.60;;;;;;;-4.66;77.29;98965.13;6085160;23;20082;-88
2022/03/08 05:23:20;;;;;;;0.70;0.70;;;;;;;-4.77;76.86;98944.25;6084326;23;20026;-88
2022/03/08 05:25:53;;;;;;;0.60;0.60;;;;;;;-4.62;76.92;98950.66;6100628;23;20529;-85
2022/03/08 05:28:21;;;;;;;0.55;0.55;;;;;;;-4.53;76.78;98962.13;6054234;23;20026;-86
2022/03/08 05:30:50;;;;;;;0.60;0.60;;;;;;;-4.56;76.29;98949.25;6079542;23;20050;-94
2022/03/08 05:33:21;;;;;;;0.50;0.50;;;;;;;-4.56;76.22;98972.94;6049145;23;20049;-86
2022/03/08 05:35:50;;;;;;;0.70;0.70;;;;;;;-4.36;76.23;98981.53;6097270;23;20097;-82
2022/03/08 05:38:19;;;;;;;0.60;0.60;;;;;;;-4.36;75.69;98963.91;6098583;23;20026;-87
2022/03/08 05:40:46;;;;;;;0.88;0.88;;;;;;;-4.21;75.68;98971.31;6096259;23;20018;-88
2022/03/08 05:43:17;;;;;;;0.60;0.60;;;;;;;-4.12;75.21;98967.78;6072726;23;20026;-91
2022/03/08 05:45:44;;;;;;;0.60;0.60;;;;;;;-3.97;74.82;98986.53;6096483;23;20112;-86
2022/03/08 05:48:12;;;;;;;0.60;0.60;;;;;;;-3.98;74.51;98987.50;6097861;23;20473;-88
2022/03/08 05:50:39;;;;;;;0.70;0.70;;;;;;;-3.87;74.20;98991.69;6097234;23;20366;-85
2022/03/08 05:53:06;;;;;;;0.60;0.60;;;;;;;-3.84;74.01;98988.78;6095867;23;20461;-86
2022/03/08 05:55:37;;;;;;;0.77;0.77;;;;;;;-3.66;73.32;98986.94;6080300;23;20030;-92
2022/03/08 05:58:06;;;;;;;0.60;0.60;;;;;;;-3.53;72.74;98986.53;6076657;23;20074;-93
2022/03/08 06:00:36;;;;;;;0.73;0.73;;;;;;;-3.54;71.98;98977.78;6079559;23;20649;-91
2022/03/08 06:03:03;;;;;;;0.75;0.75;;;;;;;-3.42;71.49;98980.16;6073136;23;20355;-91
2022/03/08 06:05:36;;;;;;;0.70;0.70;;;;;;;-3.20;70.77;98992.81;6102756;23;20054;-90
2022/03/08 06:08:04;;;;;;;0.90;0.90;;;;;;;-3.06;70.20;99009.91;6100922;23;20458;-87
2022/03/08 06:10:32;;;;;;;0.60;0.60;;;;;;;-3.13;70.16;99008.88;6071783;23;20050;-87
2022/03/08 06:13:00;;;;;;;0.60;0.60;;;;;;;-3.27;70.38;99011.13;6097431;23;20030;-88
2022/03/08 06:15:29;;;;;;;0.75;0.75;;;;;;;-3.37;71.26;98997.16;6053625;23;20113;-88
2022/03/08 06:17:57;;;;;;;0.60;0.60;;;;;;;-3.27;70.82;99012.91;6073929;23;20388;-87
2022/03/08 06:20:24;;;;;;;0.70;0.70;;;;;;;-3.18;70.73;99022.53;6096134;23;20290;-85
2022/03/08 06:22:51;;;;;;;0.70;0.70;;;;;;;-3.10;70.72;99025.22;6098783;23;20030;-89
2022/03/08 06:25:19;;;;;;;0.70;0.70;;;;;;;-3.12;70.04;99024.53;6102291;23;20082;-86
2022/03/08 06:27:46;;;;;;;0.77;0.77;;;;;;;-2.97;69.75;99026.59;6110116;23;20078;-87
2022/03/08 06:30:14;;;;;;;0.57;0.57;;;;;;;-3.12;69.55;99013.97;6100760;23;20458;-91
2022/03/08 06:32:41;;;;;;;0.80;0.80;;;;;;;-3.12;69.63;99037.75;6097799;23;20029;-89
2022/03/08 06:35:08;;;;;;;0.82;0.82;;;;;;;-3.13;69.65;99033.47;6102470;23;20022;-85
2022/03/08 06:37:36;;;;;;;0.70;0.70;;;;;;;-3.29;69.45;99030.72;6074350;23;20073;-87
2022/03/08 06:40:04;;;;;;;0.60;0.60;;;;;;;-3.33;69.33;99038.13;6096556;23;20366;-88
2022/03/08 06:42:31;;;;;;;0.77;0.77;;;;;;;-3.42;69.00;99046.13;6096773;23;20026;-83
2022/03/08 06:44:58;;;;;;;0.77;0.77;;;;;;;-3.52;69.43;99033.03;6095888;23;20022;-87
2022/03/08 06:47:26;;;;;;;0.70;0.70;;;;;;;-3.61;69.58;99053.25;6098325;23;20050;-88
2022/03/08 06:49:53;;;;;;;0.52;0.52;;;;;;;-3.64;69.58;99047.47;6104934;23;20045;-91
2022/03/08 06:52:21;;;;;;;0.65;0.65;;;;;;;-3.59;70.02;99053.94;6079754;23;20042;-87
2022/03/08 06:54:49;;;;;;;0.68;0.68;;;;;;;-3.40;69.58;99066.09;6076631;23;20034;-89
2022/03/08 06:57:17;;;;;;;0.90;0.90;;;;;;;-3.24;69.50;99073.31;6057458;23;20363;-91
2022/03/08 06:59:47;;;;;;;0.70;0.70;;;;;;;-2.96;68.77;99073.16;6079056;23;20053;-92
2022/03/08 07:02:14;;;;;;;0.80;0.80;;;;;;;-2.96;68.44;99078.44;6088094;23;20018;-90
2022/03/08 07:04:42;;;;;;;0.80;0.80;;;;;;;-3.04;68.18;99071.28;6083805;23;20027;-92
2022/03/08 07:07:10;;;;;;;0.68;0.68;;;;;;;-2.96;68.44;99075.78;6104705;23;20346;-88
2022/03/08 07:09:38;;;;;;;0.60;0.60;;;;;;;-3.02;68.07;99068.50;6075737;23;20488;-91
2022/03/08 07:12:10;;;;;;;0.60;0.60;;;;;;;-2.86;67.93;99081.78;6111780;23;20002;-85
2022/03/08 07:14:37;;;;;;;0.65;0.65;;;;;;;-2.79;67.65;99074.06;6094965;23;19999;-89
2022/03/08 07:17:06;;;;;;;0.80;0.80;;;;;;;-2.92;67.37;99075.31;6096111;23;20006;-89
2022/03/08 07:19:33;;;;;;;0.77;0.77;;;;;;;-2.90;67.64;99088.38;6089589;23;20121;-89
2022/03/08 07:22:01;;;;;;;0.50;0.50;;;;;;;-2.95;67.48;99080.09;6109702;23;20041;-90
2022/03/08 07:24:28;;;;;;;0.75;0.75;;;;;;;-3.01;67.39;99064.88;6118539;23;20029;-87
2022/03/08 07:26:56;;;;;;;0.70;0.70;;;;;;;-3.09;67.46;99078.84;6087194;23;20112;-85
2022/03/08 07:29:23;;;;;;;0.75;0.75;;;;;;;-3.17;67.44;99087.53;6083099;23;20022;-84
2022/03/08 07:31:50;;;;;;;0.63;0.63;;;;;;;-3.22;67.30;99089.81;6097660;23;20026;-85
2022/03/08 07:34:18;;;;;;;0.90;0.90;;;;;;;-3.36;67.80;99090.38;6099155;23;20027;-88
2022/03/08 07:36:45;;;;;;;0.77;0.77;;;;;;;-3.29;67.75;99086.16;6101806;23;20033;-90
2022/03/08 07:39:12;;;;;;;0.60;0.60;;;;;;;-3.26;67.74;99099.03;6074153;23;20078;-88
2022/03/08 07:41:39;;;;;;;0.60;0.60;;;;;;;-3.28;67.39;99103.63;6099600;23;20028;-89
2022/03/08 07:44:06;;;;;;;0.98;0.98;;;;;;;-3.37;67.74;99109.81;6099061;23;20025;-87
2022/03/08 07:46:34;;;;;;;0.80;0.80;;;;;;;-3.35;67.70;99110.50;6074745;23;20056;-88
2022/03/08 07:49:01;;;;;;;0.88;0.88;;;;;;;-3.43;67.75;99100.72;6098679;23;20029;-87
2022/03/08 07:51:47;;;;;;;0.80;0.80;;;;;;;-3.56;67.57;99106.38;6072677;23;20380;-87
2022/03/08 07:54:14;;;;;;;0.77;0.77;;;;;;;-3.67;67.68;99117.19;6099011;23;20050;-86
2022/03/08 07:56:41;;;;;;;0.70;0.70;;;;;;;-3.64;67.63;99132.69;6072085;23;20446;-84
2022/03/08 07:59:08;;;;;;;0.60;0.60;;;;;;;-3.61;67.79;99137.66;6099802;23;20029;-85
2022/03/08 08:01:36;;;;;;;0.60;0.60;;;;;;;-3.53;68.23;99135.09;6097116;23;20030;-84
2022/03/08 08:04:03;;;;;;;0.80;0.80;;;;;;;-3.49;67.49;99140.91;6097331;23;20370;-83
2022/03/08 08:06:30;;;;;;;0.70;0.70;;;;;;;-3.48;67.59;99139.94;6097411;23;20489;-83
2022/03/08 08:08:57;;;;;;;0.70;0.70;;;;;;;-3.49;67.24;99144.38;6097656;23;20023;-84
2022/03/08 08:11:25;;;;;;;0.80;0.80;;;;;;;-3.55;67.02;99138.88;6095320;23;20026;-85
2022/03/08 08:13:53;;;;;;;0.80;0.80;;;;;;;-3.65;67.07;99157.41;6072423;23;20034;-87
2022/03/08 08:16:23;;;;;;;0.68;0.68;;;;;;;-3.69;67.21;99150.78;6101030;23;20038;-86
2022/03/08 08:18:51;;;;;;;0.70;0.70;;;;;;;-3.67;66.88;99148.84;6074590;23;20034;-85
2022/03/08 08:21:18;;;;;;;0.90;0.90;;;;;;;-3.57;67.11;99149.59;6101121;23;20113;-88
2022/03/08 08:23:45;;;;;;;0.73;0.73;;;;;;;-3.62;66.88;99143.94;6048883;23;20030;-87
2022/03/08 08:26:12;;;;;;;0.65;0.65;;;;;;;-3.61;66.95;99153.50;6050498;23;20023;-86
2022/03/08 08:28:41;;;;;;;0.73;0.73;;;;;;;-3.59;67.38;99141.00;6103270;23;20023;-86
2022/03/08 08:31:08;;;;;;;0.90;0.90;;;;;;;-3.50;67.13;99161.16;6099615;23;20502;-86
2022/03/08 08:33:37;;;;;;;0.65;0.65;;;;;;;-3.41;67.22;99156.81;6101563;23;20085;-91
2022/03/08 08:36:11;;;;;;;0.77;0.77;;;;;;;-3.41;66.83;99163.91;6085074;23;20018;-91
2022/03/08 08:38:52;;;;;;;;;;;;;;;-3.45;67.00;99160.72;6076877;23;20022;-91
2022/03/08 08:41:19;;;;;;;0.65;0.65;;;;;;;-3.45;66.92;99158.09;6102696;23;20341;-90
2022/03/08 08:43:47;;;;;;;0.63;0.63;;;;;;;-3.45;66.35;99157.25;6105699;23;20042;-89
2022/03/08 08:46:18;;;;;;;0.70;0.70;;;;;;;-3.33;66.01;99156.06;6061638;23;20078;-94
2022/03/08 08:49:43;;;;;;;0.80;0.80;;;;;;;-3.23;65.86;99172.63;6113547;23;20121;-92
2022/03/08 08:52:12;;;;;;;0.70;0.70;;;;;;;-3.35;65.23;99164.13;6106081;23;20065;-88
2022/03/08 08:54:39;;;;;;;0.90;0.90;;;;;;;-3.30;65.64;99177.69;6053090;23;20406;-87
2022/03/08 08:57:12;;;;;;;0.80;0.80;;;;;;;-3.29;65.51;99178.53;6087231;23;20446;-91
2022/03/08 08:59:42;;;;;;;;;;;;;;;-3.20;65.46;99167.06;6060765;23;20143;-92
2022/03/08 09:02:11;;;;;;;0.63;0.63;;;;;;;-3.10;65.11;99172.25;6085025;23;19921;-90
2022/03/08 09:04:52;;;;;;;0.75;0.75;;;;;;;-2.99;64.85;99173.81;6100187;23;20023;-91
2022/03/08 09:07:25;;;;;;;0.80;0.80;;;;;;;-2.93;64.31;99181.13;6059085;23;20117;-91
2022/03/08 09:09:54;;;;;;;0.80;0.80;;;;;;;-2.75;64.35;99181.09;6063125;23;20462;-90
2022/03/08 09:12:24;;;;;;;0.73;0.73;;;;;;;-2.71;63.77;99193.00;6054948;23;20026;-91
2022/03/08 09:14:52;;;;;;;0.70;0.70;;;;;;;-2.68;63.87;99198.00;6077809;23;20072;-83
2022/03/08 09:17:19;;;;;;;0.77;0.77;;;;;;;-2.62;63.96;99202.66;6097837;23;20034;-86
2022/03/08 09:19:47;;;;;;;0.75;0.75;;;;;;;-2.55;63.76;99190.47;6096597;23;20026;-90
2022/03/08 09:22:15;;;;;;;0.90;0.90;;;;;;;-2.56;62.63;99186.16;6075370;23;20042;-83
2022/03/08 09:24:42;;;;;;;0.93;0.93;;;;;;;-2.72;62.72;99202.75;6112544;23;20022;-85
2022/03/08 09:27:09;;;;;;;0.70;0.70;;;;;;;-2.85;63.34;99199.69;6114835;23;20042;-84
2022/03/08 09:29:37;;;;;;;0.77;0.77;;;;;;;-2.79;63.59;99195.59;6073815;23;20101;-86
2022/03/08 09:32:05;;;;;;;0.80;0.80;;;;;;;-2.57;63.10;99210.13;6094779;23;20041;-86
2022/03/08 09:34:33;;;;;;;0.80;0.80;;;;;;;-2.56;62.72;99187.97;6071461;23;20438;-87
2022/03/08 09:37:00;;;;;;;0.85;0.85;;;;;;;-2.30;62.31;99195.91;6071111;23;20022;-89
2022/03/08 09:39:27;;;;;;;1.00;1.00;;;;;;;-2.23;62.07;99197.75;6096276;23;20030;-85
2022/03/08 09:41:55;;;;;;;0.95;0.95;;;;;;;-2.41;61.84;99211.03;6096760;23;20022;-86
2022/03/08 09:44:24;;;;;;;0.80;0.80;;;;;;;-2.45;61.77;99208.88;6071416;23;20026;-88
2022/03/08 09:46:51;;;;;;;1.10;1.10;;;;;;;-2.46;61.75;99205.38;6098627;23;20045;-86
2022/03/08 09:49:18;;;;;;;0.65;0.65;;;;;;;-2.55;61.51;99208.16;6098140;23;20022;-87
2022/03/08 09:51:46;;;;;;;1.02;1.02;;;;;;;-2.53;61.48;99222.00;6098179;23;20081;-86
2022/03/08 09:54:13;;;;;;;0.85;0.85;;;;;;;-2.78;61.67;99192.81;6103101;23;20026;-87
2022/03/08 09:56:40;;;;;;;0.80;0.80;;;;;;;-2.64;62.12;99213.34;6025828;23;20131;-88
2022/03/08 09:59:10;;;;;;;0.68;0.68;;;;;;;-2.52;62.39;99235.09;6096379;23;20049;-85
2022/03/08 10:01:37;;;;;;;0.90;0.90;;;;;;;-2.70;62.24;99213.16;6050655;23;20022;-87
2022/03/08 10:04:06;;;;;;;0.77;0.77;;;;;;;-2.71;62.38;99216.78;6098613;23;20026;-86
2022/03/08 10:06:53;;;;;;;0.70;0.70;;;;;;;-2.69;62.43;99231.50;6047043;23;20051;-89
2022/03/08 10:09:22;;;;;;;0.77;0.77;;;;;;;-2.67;62.53;99228.69;6069738;23;20026;-86
2022/03/08 10:14:59;;;;;;;0.90;0.90;;;;;;;-2.81;62.57;99216.88;6107400;23;20031;-90
2022/03/08 10:17:40;;;;;;;0.90;0.90;;;;;;;-2.77;62.61;99223.50;6097782;23;20034;-93
2022/03/08 10:20:10;;;;;;;0.85;0.85;;;;;;;-2.75;62.72;99229.47;6132908;23;20114;-91
2022/03/08 10:22:42;;;;;;;0.85;0.85;;;;;;;-2.75;62.65;99234.75;6080445;23;20026;-89
2022/03/08 10:25:12;;;;;;;0.75;0.75;;;;;;;-2.76;62.26;99238.41;6068694;23;20070;-87
2022/03/08 10:27:44;;;;;;;0.70;0.70;;;;;;;-2.80;62.43;99237.03;6108330;23;20026;-95
2022/03/08 10:30:13;;;;;;;0.80;0.80;;;;;;;-2.81;62.30;99250.38;6080180;23;20030;-86
2022/03/08 10:33:02;;;;;;;0.70;0.70;;;;;;;-3.08;62.70;99244.22;6101260;23;20572;-89
2022/03/08 10:35:38;;;;;;;0.80;0.80;;;;;;;-3.20;63.32;99250.69;6081203;23;20022;-93
2022/03/08 10:38:11;;;;;;;0.70;0.70;;;;;;;-3.24;63.32;99258.09;6089972;23;20014;-91
2022/03/08 10:40:40;;;;;;;0.75;0.75;;;;;;;-3.23;63.23;99251.00;6134260;23;20078;-93
2022/03/08 10:43:15;;;;;;;0.60;0.60;;;;;;;-3.25;63.27;99258.25;6111013;23;20078;-93
2022/03/08 10:45:52;;;;;;;0.80;0.80;;;;;;;-3.23;63.37;99264.22;6066633;23;20050;-91
2022/03/08 10:49:03;;;;;;;0.80;0.80;;;;;;;-3.15;62.96;99261.66;6118276;23;20022;-90
2022/03/08 10:51:38;;;;;;;0.65;0.65;;;;;;;-3.16;62.95;99250.25;6093114;23;20081;-92
2022/03/08 10:54:14;;;;;;;0.80;0.80;;;;;;;-3.00;62.50;99248.75;6113722;23;20026;-90
2022/03/08 10:56:45;;;;;;;0.90;0.80;;;;;;;-3.00;62.19;99251.38;6108016;23;20317;-88
2022/03/08 10:59:15;;;;;;;0.80;0.80;;;;;;;-2.99;61.59;99258.31;6135001;23;20026;-90
2022/03/08 11:01:42;;;;;;;0.75;0.75;;;;;;;-3.07;61.58;99267.81;6070674;23;20479;-85
2022/03/08 11:04:18;;;;;;;1.00;1.00;;;;;;;-3.03;61.69;99259.63;6093474;23;20029;-88
2022/03/08 11:06:50;;;;;;;0.77;0.77;;;;;;;-3.09;62.07;99264.53;6108092;23;20027;-91
2022/03/08 11:09:18;;;;;;;0.90;0.90;;;;;;;-2.98;62.03;99265.28;6111697;23;20095;-90
2022/03/08 11:11:48;;;;;;;0.60;0.60;;;;;;;-3.02;61.38;99261.28;6110441;23;20030;-90
2022/03/08 11:14:25;;;;;;;0.70;0.70;;;;;;;-3.17;61.97;99263.59;6116695;23;20054;-93
2022/03/08 11:17:26;;;;;;;0.77;0.77;;;;;;;-3.19;62.12;99263.75;6100428;23;20090;-93
2022/03/08 11:20:16;;;;;;;0.93;0.93;;;;;;;-3.29;62.06;99274.38;6049940;23;20085;-89
2022/03/08 11:22:48;;;;;;;0.80;0.80;;;;;;;-3.32;62.80;99273.84;6085631;23;20022;-91
2022/03/08 11:25:16;;;;;;;0.68;0.68;;;;;;;-3.22;62.87;99271.97;6115062;23;20022;-91
2022/03/08 11:28:11;;;;;;;0.50;0.50;;;;;;;-3.22;62.91;99273.78;6045919;23;20022;-89
2022/03/08 11:31:04;;;;;;;0.88;0.88;;;;;;;-3.09;62.61;99272.44;6113320;23;20018;-91
2022/03/08 11:34:10;;;;;;;0.63;0.63;;;;;;;-3.14;62.22;99276.50;6110119;23;20026;-92
2022/03/08 11:37:00;;;;;;;0.67;0.67;;;;;;;-3.22;62.22;99258.75;6124459;23;20040;-94
2022/03/08 11:39:31;;;;;;;0.60;0.60;;;;;;;-3.30;62.06;99242.84;6156086;23;20021;-91
2022/03/08 11:42:26;;;;;;;0.60;0.60;;;;;;;-3.34;62.23;99270.50;6172531;23;20017;-90
2022/03/08 11:44:58;;;;;;;0.77;0.77;;;;;;;-3.39;62.51;99270.97;6167106;23;20029;-94
2022/03/08 11:47:51;;;;;;;0.50;0.50;;;;;;;-3.40;62.77;99273.75;6179194;23;20074;-94
2022/03/08 11:51:02;;;;;;;0.90;0.90;;;;;;;-3.36;62.99;99288.34;6146407;23;20080;-89